createdAt,value
2019-03-10T00:02:18.214Z,3.80
2019-03-10T00:04:49.800Z,4.20
2019-03-10T00:07:21.182Z,4.27
2019-03-10T00:09:52.822Z,4.03
2019-03-10T00:12:25.283Z,3.87
2019-03-10T00:14:56.696Z,4.53
2019-03-10T00:17:28.422Z,3.67
2019-03-10T00:19:59.814Z,3.40
2019-03-10T00:22:31.389Z,4.37
2019-03-10T00:25:02.811Z,3.33
2019-03-10T00:27:34.816Z,3.63
2019-03-10T00:30:06.543Z,3.37
2019-03-10T00:32:37.961Z,2.80
2019-03-10T00:35:09.381Z,3.00
2019-03-10T00:37:40.763Z,5.57
2019-03-10T00:40:56.193Z,3.80
2019-03-10T00:44:40.002Z,3.73
2019-03-10T00:48:22.427Z,3.27
2019-03-10T00:52:02.871Z,4.17
2019-03-10T00:54:34.132Z,4.53
2019-03-10T00:57:05.541Z,4.50
2019-03-10T00:59:38.326Z,4.53
2019-03-10T01:02:09.638Z,4.13
2019-03-10T01:04:41.873Z,13.07
2019-03-10T01:07:13.577Z,4.83
2019-03-10T01:09:45.254Z,3.47
2019-03-10T01:12:16.603Z,4.77
2019-03-10T01:14:48.037Z,5.03
2019-03-10T01:17:21.230Z,4.93
2019-03-10T01:19:53.883Z,4.97
2019-03-10T01:22:25.865Z,4.10
2019-03-10T01:24:57.298Z,3.57
2019-03-10T01:27:28.723Z,3.23
2019-03-10T01:30:00.104Z,5.23
2019-03-10T01:33:16.152Z,3.90
2019-03-10T01:35:47.506Z,3.63
2019-03-10T01:38:19.610Z,4.20
2019-03-10T01:40:51.004Z,4.50
2019-03-10T01:43:22.235Z,2.90
2019-03-10T01:45:53.762Z,4.53
2019-03-10T01:48:25.091Z,3.43
2019-03-10T01:50:56.823Z,4.83
2019-03-10T01:53:28.064Z,4.70
2019-03-10T01:55:59.507Z,3.70
2019-03-10T01:58:31.234Z,3.60
2019-03-10T02:01:02.910Z,3.10
2019-03-10T02:03:34.550Z,3.87
2019-03-10T02:06:06.309Z,5.27
2019-03-10T02:08:37.621Z,4.80
2019-03-10T02:11:08.953Z,3.27
2019-03-10T02:13:40.265Z,5.07
2019-03-10T02:16:11.585Z,4.40
2019-03-10T02:18:42.977Z,4.20
2019-03-10T02:21:14.372Z,4.43
2019-03-10T02:23:45.766Z,3.60
2019-03-10T02:26:17.199Z,4.53
2019-03-10T02:28:48.501Z,3.30
2019-03-10T02:31:20.061Z,2.80
2019-03-10T02:33:51.334Z,3.47
2019-03-10T02:36:23.202Z,4.00
2019-03-10T02:38:54.730Z,4.13
2019-03-10T02:41:26.128Z,4.27
2019-03-10T02:43:57.359Z,3.97
2019-03-10T02:46:28.839Z,6.60
2019-03-10T02:49:00.525Z,3.47
2019-03-10T02:51:32.188Z,3.70
2019-03-10T02:54:03.520Z,3.43
2019-03-10T02:56:34.834Z,5.90
2019-03-10T02:59:06.153Z,6.20
2019-03-10T03:01:37.510Z,2.93
2019-03-10T03:04:08.756Z,4.57
2019-03-10T03:06:40.201Z,4.90
2019-03-10T03:09:11.589Z,3.67
2019-03-10T03:11:43.209Z,4.07
2019-03-10T03:14:14.534Z,6.50
2019-03-10T03:16:45.917Z,4.30
2019-03-10T03:19:17.310Z,3.50
2019-03-10T03:21:49.350Z,6.17
2019-03-10T03:24:21.947Z,4.27
2019-03-10T03:26:53.514Z,3.40
2019-03-10T03:29:25.464Z,4.20
2019-03-10T03:31:56.706Z,3.00
2019-03-10T03:34:27.881Z,4.83
2019-03-10T03:36:59.682Z,4.00
2019-03-10T03:39:52.031Z,3.90
2019-03-10T03:42:23.364Z,3.70
2019-03-10T03:44:54.778Z,4.53
2019-03-10T03:47:26.208Z,4.07
2019-03-10T03:49:57.566Z,4.60
2019-03-10T03:52:28.837Z,4.63
2019-03-10T03:55:00.081Z,3.10
2019-03-10T03:57:31.484Z,2.13
2019-03-10T04:00:02.818Z,2.70
2019-03-10T04:02:39.434Z,3.93
2019-03-10T04:05:10.950Z,2.93
2019-03-10T04:07:42.189Z,3.63
2019-03-10T04:10:13.633Z,3.17
2019-03-10T04:12:44.821Z,4.23
2019-03-10T04:15:16.176Z,2.67
2019-03-10T04:17:47.419Z,4.20
2019-03-10T04:20:18.648Z,3.93
2019-03-10T04:22:49.816Z,4.70
2019-03-10T04:25:21.162Z,3.57
2019-03-10T04:27:52.784Z,3.93
2019-03-10T04:30:24.201Z,2.47
2019-03-10T04:32:55.393Z,4.87
2019-03-10T04:35:26.781Z,3.67
2019-03-10T04:37:58.011Z,2.80
2019-03-10T04:40:29.177Z,3.60
2019-03-10T04:43:00.442Z,2.87
2019-03-10T04:45:31.681Z,3.37
2019-03-10T04:48:03.212Z,3.10
2019-03-10T04:50:34.620Z,3.60
2019-03-10T04:53:06.033Z,3.37
2019-03-10T04:55:46.499Z,4.00
2019-03-10T04:58:17.847Z,3.00
2019-03-10T05:00:51.908Z,2.03
2019-03-10T05:03:23.142Z,2.40
2019-03-10T05:05:54.777Z,4.73
2019-03-10T05:08:26.118Z,3.40
2019-03-10T05:10:57.688Z,2.03
2019-03-10T05:13:29.268Z,3.60
2019-03-10T05:16:00.521Z,1.60
2019-03-10T05:18:32.098Z,1.40
2019-03-10T05:21:03.381Z,2.53
2019-03-10T05:23:43.410Z,1.20
2019-03-10T05:26:16.318Z,2.50
2019-03-10T05:28:48.808Z,2.43
2019-03-10T05:31:20.064Z,1.93
2019-03-10T05:33:51.340Z,1.30
2019-03-10T05:36:22.973Z,2.33
2019-03-10T05:38:54.308Z,2.07
2019-03-10T05:41:25.467Z,1.67
2019-03-10T05:43:58.924Z,2.57
2019-03-10T05:46:30.531Z,1.40
2019-03-10T05:49:01.928Z,1.53
2019-03-10T05:51:33.259Z,1.27
2019-03-10T05:54:04.758Z,1.97
2019-03-10T05:56:37.116Z,3.63
2019-03-10T05:59:08.769Z,4.73
2019-03-10T06:01:40.383Z,2.50
2019-03-10T06:04:11.923Z,1.30
2019-03-10T06:06:43.219Z,2.10
2019-03-10T06:09:14.987Z,1.93
2019-03-10T06:11:46.172Z,3.43
2019-03-10T06:14:17.409Z,1.37
2019-03-10T06:16:48.719Z,1.77
2019-03-10T06:19:19.833Z,2.20
2019-03-10T06:21:51.068Z,2.30
2019-03-10T06:24:22.915Z,1.80
2019-03-10T06:26:54.146Z,2.30
2019-03-10T06:29:25.717Z,1.97
2019-03-10T06:31:56.945Z,5.47
2019-03-10T06:34:28.100Z,6.67
2019-03-10T06:36:59.278Z,4.27
2019-03-10T06:39:30.679Z,2.80
2019-03-10T06:42:02.236Z,2.63
2019-03-10T06:44:33.590Z,4.60
2019-03-10T06:47:04.953Z,3.07
2019-03-10T06:49:36.366Z,10.40
2019-03-10T06:52:07.681Z,7.40
2019-03-10T06:54:39.405Z,7.27
2019-03-10T06:57:10.578Z,3.20
2019-03-10T06:59:41.829Z,5.20
2019-03-10T07:02:13.074Z,3.83
2019-03-10T07:04:44.385Z,2.60
2019-03-10T07:07:15.553Z,4.03
2019-03-10T07:09:46.800Z,6.33
2019-03-10T07:12:18.273Z,3.87
2019-03-10T07:14:49.790Z,3.73
2019-03-10T07:17:21.122Z,2.30
2019-03-10T07:19:52.477Z,2.80
2019-03-10T07:22:23.829Z,2.67
2019-03-10T07:24:55.081Z,2.20
2019-03-10T07:27:31.369Z,2.43
2019-03-10T07:30:09.617Z,3.00
2019-03-10T07:32:46.573Z,2.90
2019-03-10T07:35:35.592Z,1.97
2019-03-10T07:38:23.161Z,2.87
2019-03-10T07:41:00.211Z,2.47
2019-03-10T07:43:45.291Z,3.60
2019-03-10T07:46:44.535Z,7.73
2019-03-10T07:49:43.784Z,5.20
2019-03-10T07:52:52.264Z,3.67
2019-03-10T07:55:39.284Z,2.67
2019-03-10T07:58:27.962Z,5.40
2019-03-10T08:01:06.199Z,5.50
2019-03-10T08:04:05.560Z,5.00
2019-03-10T08:06:52.503Z,4.23
2019-03-10T08:09:36.383Z,5.13
2019-03-10T08:12:25.809Z,5.10
2019-03-10T08:15:12.591Z,5.37
2019-03-10T08:18:01.789Z,7.00
2019-03-10T08:20:50.032Z,7.00
2019-03-10T08:23:41.321Z,5.80
2019-03-10T08:26:31.572Z,5.93
2019-03-10T08:29:18.348Z,7.43
2019-03-10T08:31:58.618Z,6.80
2019-03-10T08:35:04.490Z,4.77
2019-03-10T08:38:00.644Z,4.93
2019-03-10T08:40:40.144Z,5.70
2019-03-10T08:43:29.395Z,4.63
2019-03-10T08:46:15.605Z,4.83
2019-03-10T08:49:12.143Z,4.57
2019-03-10T08:51:50.863Z,5.00
2019-03-10T08:54:50.263Z,4.43
2019-03-10T08:57:28.780Z,4.97
2019-03-10T09:00:17.849Z,4.37
2019-03-10T09:02:58.913Z,6.07
2019-03-10T09:06:04.050Z,7.97
2019-03-10T09:08:53.182Z,7.73
2019-03-10T09:11:31.942Z,7.53
2019-03-10T09:14:19.827Z,7.97
2019-03-10T09:17:11.900Z,5.37
2019-03-10T09:20:14.432Z,8.20
2019-03-10T09:23:10.358Z,8.73
2019-03-10T09:25:53.850Z,7.70
2019-03-10T09:28:56.298Z,10.00
2019-03-10T09:31:46.647Z,9.33
2019-03-10T09:34:35.974Z,7.53
2019-03-10T09:37:26.027Z,16.27
2019-03-10T09:40:07.343Z,9.93
2019-03-10T09:43:07.054Z,10.97
2019-03-10T09:46:00.497Z,9.40
2019-03-10T09:48:44.578Z,8.43
2019-03-10T09:51:22.989Z,11.83
2019-03-10T09:54:19.821Z,8.47
2019-03-10T09:57:07.363Z,7.67
2019-03-10T09:59:45.262Z,9.60
2019-03-10T10:02:26.540Z,6.27
2019-03-10T10:05:13.160Z,6.17
2019-03-10T10:07:58.669Z,4.53
2019-03-10T10:10:38.671Z,5.10
2019-03-10T10:13:30.973Z,3.17
2019-03-10T10:16:19.298Z,1.70
2019-03-10T10:19:09.471Z,2.77
2019-03-10T10:21:49.983Z,1.57
2019-03-10T10:24:27.993Z,1.40
2019-03-10T10:27:36.268Z,0.80
2019-03-10T10:30:29.214Z,1.13
2019-03-10T10:33:12.819Z,1.90
2019-03-10T10:36:08.949Z,0.63
2019-03-10T10:38:59.069Z,1.13
2019-03-10T10:41:54.020Z,0.80
2019-03-10T10:44:42.985Z,0.60
2019-03-10T10:47:32.460Z,1.80
2019-03-10T10:50:23.303Z,0.50
2019-03-10T10:53:15.207Z,0.57
2019-03-10T10:56:06.615Z,1.17
2019-03-10T10:59:09.157Z,0.90
2019-03-10T11:01:55.422Z,0.87
2019-03-10T11:04:44.819Z,0.90
2019-03-10T11:07:39.466Z,0.50
2019-03-10T11:10:28.809Z,2.43
2019-03-10T11:13:37.833Z,0.70
2019-03-10T11:16:27.004Z,0.97
2019-03-10T11:19:20.094Z,0.60
2019-03-10T11:22:10.140Z,0.53
2019-03-10T11:25:04.963Z,1.00
2019-03-10T11:27:55.213Z,1.40
2019-03-10T11:30:42.898Z,0.80
2019-03-10T11:33:27.651Z,0.60
2019-03-10T11:36:18.339Z,0.93
2019-03-10T11:39:06.423Z,2.40
2019-03-10T11:42:03.884Z,1.17
2019-03-10T11:44:43.907Z,1.00
2019-03-10T11:47:40.081Z,2.23
2019-03-10T11:50:26.843Z,1.13
2019-03-10T11:53:18.348Z,1.40
2019-03-10T11:55:51.861Z,1.07
2019-03-10T11:58:42.367Z,0.70
2019-03-10T12:01:22.582Z,1.50
2019-03-10T12:04:06.967Z,0.97
2019-03-10T12:06:57.213Z,0.77
2019-03-10T12:09:28.698Z,0.80
2019-03-10T12:12:00.365Z,1.00
2019-03-10T12:14:32.035Z,1.73
2019-03-10T12:17:03.750Z,1.13
2019-03-10T12:19:35.140Z,2.03
2019-03-10T12:22:06.874Z,0.80
2019-03-10T12:24:38.516Z,1.33
2019-03-10T12:27:10.029Z,5.67
2019-03-10T12:29:41.294Z,1.10
2019-03-10T12:32:12.937Z,1.93
2019-03-10T12:34:44.576Z,2.57
2019-03-10T12:37:15.904Z,2.27
2019-03-10T12:39:47.764Z,1.93
2019-03-10T12:42:19.026Z,2.30
2019-03-10T12:44:50.664Z,1.87
2019-03-10T12:47:22.134Z,1.47
2019-03-10T12:49:54.107Z,1.77
2019-03-10T12:52:25.381Z,1.17
2019-03-10T12:54:57.940Z,1.70
2019-03-10T12:57:29.217Z,0.87
2019-03-10T13:00:00.565Z,0.70
2019-03-10T13:02:32.008Z,1.77
2019-03-10T13:05:03.528Z,0.80
2019-03-10T13:07:34.917Z,0.60
2019-03-10T13:10:06.683Z,1.00
2019-03-10T13:12:38.045Z,0.70
2019-03-10T13:15:10.325Z,1.50
2019-03-10T13:17:42.061Z,1.53
2019-03-10T13:20:13.504Z,2.03
2019-03-10T13:22:44.668Z,2.00
2019-03-10T13:25:16.106Z,2.20
2019-03-10T13:27:47.445Z,2.17
2019-03-10T13:30:18.852Z,0.83
2019-03-10T13:32:50.168Z,1.47
2019-03-10T13:35:21.728Z,2.27
2019-03-10T13:37:53.222Z,3.33
2019-03-10T13:40:24.533Z,0.80
2019-03-10T13:42:56.017Z,0.60
2019-03-10T13:45:27.475Z,1.73
2019-03-10T13:47:58.881Z,0.80
2019-03-10T13:50:30.629Z,1.37
2019-03-10T13:53:01.905Z,0.80
2019-03-10T13:55:33.201Z,0.50
2019-03-10T13:58:04.616Z,0.70
2019-03-10T14:00:36.046Z,0.53
2019-03-10T14:03:07.498Z,1.17
2019-03-10T14:05:39.284Z,0.80
2019-03-10T14:08:10.942Z,3.40
2019-03-10T14:10:42.312Z,1.97
2019-03-10T14:13:13.777Z,1.87
2019-03-10T14:15:46.100Z,1.03
2019-03-10T14:18:18.670Z,3.43
2019-03-10T14:20:50.149Z,0.90
2019-03-10T14:23:21.489Z,1.33
2019-03-10T14:25:53.178Z,0.77
2019-03-10T14:28:24.895Z,2.50
2019-03-10T14:30:56.245Z,2.30
2019-03-10T14:33:27.705Z,0.27
2019-03-10T14:35:59.330Z,0.77
2019-03-10T14:38:30.737Z,0.40
2019-03-10T14:41:01.994Z,0.40
2019-03-10T14:43:33.350Z,0.53
2019-03-10T14:46:04.667Z,0.23
2019-03-10T14:48:36.083Z,2.00
2019-03-10T14:51:08.896Z,1.10
2019-03-10T14:53:40.093Z,1.37
2019-03-10T14:56:11.713Z,0.70
2019-03-10T14:58:43.305Z,0.83
2019-03-10T15:01:14.625Z,0.87
2019-03-10T15:03:46.034Z,1.47
2019-03-10T15:06:18.318Z,1.43
2019-03-10T15:08:49.675Z,2.63
2019-03-10T15:11:21.036Z,3.50
2019-03-10T15:13:52.289Z,2.00
2019-03-10T15:16:23.623Z,1.40
2019-03-10T15:18:54.794Z,1.80
2019-03-10T15:21:26.333Z,1.27
2019-03-10T15:23:58.380Z,2.77
2019-03-10T15:26:29.714Z,1.37
2019-03-10T15:29:01.113Z,1.30
2019-03-10T15:31:32.503Z,1.37
2019-03-10T15:34:03.783Z,2.33
2019-03-10T15:36:35.118Z,1.80
2019-03-10T15:39:07.334Z,1.60
2019-03-10T15:41:39.060Z,1.57
2019-03-10T15:44:10.730Z,1.67
2019-03-10T15:46:42.857Z,0.93
2019-03-10T15:49:14.184Z,1.53
2019-03-10T15:51:45.660Z,1.60
2019-03-10T15:54:17.257Z,1.90
2019-03-10T15:56:48.540Z,4.40
2019-03-10T15:59:21.925Z,2.00
2019-03-10T16:01:53.168Z,1.77
2019-03-10T16:04:24.735Z,1.00
2019-03-10T16:06:56.071Z,1.30
2019-03-10T16:09:27.318Z,1.87
2019-03-10T16:11:58.496Z,2.50
2019-03-10T16:14:29.735Z,2.40
2019-03-10T16:17:01.502Z,1.70
2019-03-10T16:19:33.163Z,2.27
2019-03-10T16:22:04.467Z,3.67
2019-03-10T16:24:35.942Z,1.37
2019-03-10T16:27:07.331Z,6.00
2019-03-10T16:29:39.063Z,2.83
2019-03-10T16:32:10.372Z,2.67
2019-03-10T16:34:41.805Z,5.93
2019-03-10T16:37:14.189Z,2.07
2019-03-10T16:39:45.705Z,3.43
2019-03-10T16:42:17.136Z,2.80
2019-03-10T16:44:48.563Z,3.50
2019-03-10T16:47:19.935Z,3.20
2019-03-10T16:49:51.191Z,2.40
2019-03-10T16:52:22.566Z,2.20
2019-03-10T16:54:53.950Z,4.20
2019-03-10T16:57:25.364Z,8.90
2019-03-10T16:59:56.706Z,4.53
2019-03-10T17:02:28.299Z,2.90
2019-03-10T17:04:59.647Z,7.57
2019-03-10T17:07:31.237Z,6.30
2019-03-10T17:10:02.607Z,4.37
2019-03-10T17:12:34.368Z,5.27
2019-03-10T17:15:06.495Z,5.13
2019-03-10T17:17:37.906Z,4.53
2019-03-10T17:20:11.436Z,5.80
2019-03-10T17:22:42.830Z,7.90
2019-03-10T17:25:14.545Z,4.93
2019-03-10T17:27:46.057Z,8.40
2019-03-10T17:30:19.168Z,3.90
2019-03-10T17:32:50.686Z,6.87
2019-03-10T17:35:22.134Z,3.43
2019-03-10T17:37:53.535Z,5.83
2019-03-10T17:40:25.083Z,4.07
2019-03-10T17:42:56.501Z,5.93
2019-03-10T17:45:27.900Z,10.90
2019-03-10T17:47:59.660Z,4.53
2019-03-10T17:50:31.005Z,10.17
2019-03-10T17:53:02.311Z,7.60
2019-03-10T17:55:34.121Z,7.60
2019-03-10T17:58:05.543Z,9.33
2019-03-10T18:00:37.233Z,6.90
2019-03-10T18:03:08.651Z,11.63
2019-03-10T18:05:40.244Z,9.70
2019-03-10T18:08:11.604Z,10.33
2019-03-10T18:10:43.197Z,6.17
2019-03-10T18:13:14.448Z,6.40
2019-03-10T18:15:45.714Z,8.07
2019-03-10T18:18:17.379Z,6.37
2019-03-10T18:20:49.002Z,9.20
2019-03-10T18:23:20.338Z,7.83
2019-03-10T18:25:52.100Z,6.03
2019-03-10T18:28:23.775Z,4.90
2019-03-10T18:30:55.148Z,6.87
2019-03-10T18:33:26.904Z,5.73
2019-03-10T18:35:58.239Z,5.23
2019-03-10T18:38:29.915Z,9.00
2019-03-10T18:41:01.323Z,5.90
2019-03-10T18:43:32.716Z,6.53
2019-03-10T18:46:04.316Z,7.47
2019-03-10T18:48:35.486Z,9.37
2019-03-10T18:51:06.881Z,13.87
2019-03-10T18:53:38.134Z,7.27
2019-03-10T18:56:10.266Z,5.83
2019-03-10T18:58:41.532Z,12.40
2019-03-10T19:01:12.944Z,6.80
2019-03-10T19:03:44.732Z,6.80
2019-03-10T19:06:16.041Z,4.47
2019-03-10T19:08:47.377Z,5.57
2019-03-10T19:11:18.757Z,6.00
2019-03-10T19:13:50.238Z,7.27
2019-03-10T19:16:22.889Z,3.30
2019-03-10T19:18:54.332Z,5.37
2019-03-10T19:21:25.729Z,6.53
2019-03-10T19:23:57.053Z,5.73
2019-03-10T19:26:28.397Z,8.37
2019-03-10T19:28:59.581Z,3.97
2019-03-10T19:31:33.055Z,4.83
2019-03-10T19:34:04.476Z,4.87
2019-03-10T19:36:36.116Z,2.57
2019-03-10T19:39:08.500Z,4.00
2019-03-10T19:41:41.353Z,3.60
2019-03-10T19:44:12.796Z,4.20
2019-03-10T19:46:44.152Z,7.67
2019-03-10T19:49:15.604Z,2.83
2019-03-10T19:51:47.144Z,5.57
2019-03-10T19:54:18.424Z,4.77
2019-03-10T19:56:49.752Z,6.37
2019-03-10T19:59:21.061Z,3.60
2019-03-10T20:01:52.400Z,5.17
2019-03-10T20:04:23.667Z,7.60
2019-03-10T20:06:56.194Z,4.97
2019-03-10T20:09:27.538Z,2.80
2019-03-10T20:11:58.993Z,2.10
2019-03-10T20:14:31.472Z,3.57
2019-03-10T20:17:02.816Z,5.87
2019-03-10T20:19:34.467Z,2.93
2019-03-10T20:22:06.051Z,1.83
2019-03-10T20:24:37.399Z,2.33
2019-03-10T20:27:09.199Z,2.57
2019-03-10T20:29:40.409Z,1.23
2019-03-10T20:32:14.181Z,2.57
2019-03-10T20:34:44.961Z,1.73
2019-03-10T20:37:16.146Z,1.73
2019-03-10T20:39:47.429Z,2.60
2019-03-10T20:42:18.901Z,3.97
2019-03-10T20:44:50.458Z,3.00
2019-03-10T20:47:22.005Z,6.00
2019-03-10T20:49:53.661Z,2.83
2019-03-10T20:52:25.035Z,1.97
2019-03-10T20:54:56.305Z,2.83
2019-03-10T20:57:27.590Z,2.63
2019-03-10T21:00:00.735Z,1.53
2019-03-10T21:02:33.268Z,2.20
2019-03-10T21:05:04.774Z,2.57
2019-03-10T21:07:36.145Z,4.83
2019-03-10T21:10:09.385Z,6.57
2019-03-10T21:12:42.715Z,2.17
2019-03-10T21:15:16.338Z,2.33
2019-03-10T21:17:47.963Z,2.47
2019-03-10T21:20:19.365Z,4.03
2019-03-10T21:22:51.038Z,5.00
2019-03-10T21:25:23.149Z,4.60
2019-03-10T21:27:54.556Z,5.40
2019-03-10T21:30:26.381Z,3.53
2019-03-10T21:32:58.056Z,3.23
2019-03-10T21:35:29.456Z,3.17
2019-03-10T21:38:00.933Z,3.90
2019-03-10T21:40:32.379Z,4.60
2019-03-10T21:43:03.871Z,3.13
2019-03-10T21:45:35.367Z,4.80
2019-03-10T21:48:06.757Z,3.17
2019-03-10T21:50:38.535Z,3.43
2019-03-10T21:53:09.698Z,6.37
2019-03-10T21:55:41.325Z,6.60
2019-03-10T21:58:12.883Z,6.27
2019-03-10T22:00:44.208Z,6.53
2019-03-10T22:03:15.392Z,5.93
2019-03-10T22:05:47.787Z,3.13
2019-03-10T22:08:19.136Z,3.37
2019-03-10T22:10:50.556Z,4.10
2019-03-10T22:13:22.260Z,5.50
2019-03-10T22:15:53.544Z,3.67
2019-03-10T22:18:24.944Z,3.63
2019-03-10T22:20:56.364Z,2.90
2019-03-10T22:23:27.763Z,2.43
2019-03-10T22:25:59.153Z,2.17
2019-03-10T22:28:30.741Z,2.40
2019-03-10T22:31:01.988Z,2.40
2019-03-10T22:33:33.981Z,2.27
2019-03-10T22:36:05.340Z,2.40
2019-03-10T22:38:37.582Z,3.40
2019-03-10T22:41:08.832Z,2.80
2019-03-10T22:43:40.171Z,1.93
2019-03-10T22:46:11.580Z,2.87
2019-03-10T22:48:42.846Z,1.67
2019-03-10T22:51:14.737Z,1.20
2019-03-10T22:53:46.286Z,3.47
2019-03-10T22:56:17.700Z,5.00
2019-03-10T22:58:48.948Z,4.93
2019-03-10T23:01:20.381Z,2.97
2019-03-10T23:03:51.610Z,2.93
2019-03-10T23:06:22.848Z,4.53
2019-03-10T23:08:54.567Z,3.33
2019-03-10T23:11:25.948Z,2.27
2019-03-10T23:13:57.380Z,2.30
2019-03-10T23:16:28.913Z,2.30
2019-03-10T23:19:00.261Z,4.07
2019-03-10T23:21:31.494Z,2.77
2019-03-10T23:24:02.822Z,2.93
2019-03-10T23:26:34.363Z,3.17
2019-03-10T23:29:06.282Z,2.87
2019-03-10T23:31:37.537Z,0.90
2019-03-10T23:34:08.877Z,2.57
2019-03-10T23:36:40.061Z,3.30
2019-03-10T23:39:11.498Z,4.20
2019-03-10T23:41:44.720Z,4.60
2019-03-10T23:44:15.988Z,3.23
2019-03-10T23:46:47.161Z,3.43
2019-03-10T23:49:18.800Z,4.20
2019-03-10T23:51:50.178Z,5.03
2019-03-10T23:54:21.434Z,3.50
2019-03-10T23:56:53.023Z,3.67
2019-03-10T23:59:24.609Z,4.57
